Flight Track Log - Related Links

Times and Time Zones

All times are in EDT time to prevent confusion due to time zone crossing. See the UAL149 flight status page for this flight to view local times or setup timezone preferences in your user account.

Time Position Orientation Groundspeed Altitude Reporting Facility
EDT Latitude Longitude Course Direction KTS MPH feet Rate Location/Type
Mon 09:52:28 PM 39.9333 -104.6333 90° East 243 280 8,100  Level Denver TRACON
Mon 09:53:28 PM 39.9500 -104.5333 78° East 302 348 10,000 1,211 Climbing Denver TRACON
Mon 09:54:00 PM 39.8667 -104.1983 90° East  Level FlightAware Approximate
Mon 09:54:22 PM 39.9500 -104.4500 90° East 300 345 10,400  Level Denver TRACON
Mon 09:55:00 PM 39.8667 -104.0417 90° East  Level FlightAware Approximate
Mon 09:55:03 PM 39.9481 -104.3656 92° East 308 354 11,900  Level Denver Center
Mon 09:56:00 PM 39.8667 -103.8852 90° East  Level FlightAware Approximate
Mon 09:57:00 PM 39.8833 -103.7321 90° East  Level FlightAware Approximate
Mon 09:57:06 PM 39.9008 -104.1153 104° East 356 410 18,200  Level Denver Center
Mon 09:58:08 PM 39.8814 -103.9825 101° East 374 430 20,700 1,710 Climbing Denver Center
Mon 10:00:12 PM 39.8886 -103.6808 88° East 414 476 23,500 1,226 Climbing Denver Center
Mon 10:01:14 PM 39.9100 -103.5092 81° East 473 544 24,500 1,258 Climbing Denver Center
Mon 10:02:16 PM 39.9297 -103.3317 82° East 489 563 26,100 2,177 Climbing Denver Center
Mon 10:03:18 PM 39.9489 -103.1581 82° East 482 555 29,000 2,323 Climbing Denver Center
Mon 10:04:20 PM 39.9672 -102.9936 82° East 459 528 30,900 1,887 Climbing Denver Center
Mon 10:05:22 PM 39.9894 -102.7972 82° East 466 536 32,900 1,524 Climbing Denver Center
Mon 10:07:25 PM 40.0231 -102.4639 82° East 461 531 35,600 1,232 Climbing Denver Center
Mon 10:08:27 PM 40.0397 -102.3031 82° East 468 539 36,700 1,210 Climbing Denver Center
Mon 10:09:29 PM 40.0547 -102.1164 84° East 462 532 38,100 1,065 Climbing Denver Center
Mon 10:10:31 PM 40.0608 -101.9575 87° East 460 529 38,900 435 Climbing Denver Center
Mon 10:11:33 PM 40.0708 -101.7714 86° East 463 533 39,000 48 Climbing Denver Center
Mon 10:12:35 PM 40.0778 -101.6089 87° East 468 539 39,000  Level Denver Center
Mon 10:13:36 PM 40.0869 -101.4194 86° East 470 541 39,000  Level Denver Center
Mon 10:14:38 PM 40.0947 -101.2572 86° East 470 541 39,000  Level Denver Center
Mon 10:15:40 PM 40.1006 -101.0953 87° East 469 540 39,000  Level Denver Center
Mon 10:16:41 PM 40.1089 -100.9050 87° East 471 542 39,000  Level Denver Center
Mon 10:17:43 PM 40.1147 -100.7414 87° East 473 544 39,000  Level Denver Center
Mon 10:18:45 PM 40.1222 -100.5503 87° East 474 545 39,000  Level Denver Center
Mon 10:19:46 PM 40.1286 -100.3864 87° East 475 547 39,000  Level Denver Center
Mon 10:20:48 PM 40.1344 -100.1969 88° East 471 542 39,000  Level Denver Center
Mon 10:21:50 PM 40.1397 -100.0339 88° East 472 543 39,000  Level Denver Center
Mon 10:22:51 PM 40.1444 -99.8664 88° East 468 539 39,000  Level Denver Center
Mon 10:23:53 PM 40.1506 -99.6981 87° East 466 536 39,000  Level Denver Center
Mon 10:24:54 PM 40.1558 -99.4925 88° East 471 542 39,000  Level Denver Center
Mon 10:25:56 PM 40.1600 -99.3228 88° East 469 540 39,000  Level Denver Center
Mon 10:26:57 PM 40.1642 -99.1525 88° East 471 542 39,000  Level Denver Center
Mon 10:27:59 PM 40.1689 -98.9833 88° East 468 539 39,000  Level Denver Center
Mon 10:28:43 PM 40.1719 -98.8483 88° East 470 541 39,000  Level Minneapolis Center
Mon 10:29:44 PM 40.1761 -98.6792 88° East 468 539 39,000  Level Minneapolis Center
Mon 10:30:45 PM 40.1783 -98.5092 89° East 469 540 39,000  Level Minneapolis Center
Mon 10:31:46 PM 40.1825 -98.3386 88° East 470 541 39,000  Level Minneapolis Center
Mon 10:32:47 PM 40.1844 -98.1681 89° East 471 542 39,000  Level Minneapolis Center
Mon 10:33:49 PM 40.1872 -97.9967 89° East 471 542 39,000  Level Minneapolis Center
Mon 10:34:50 PM 40.1892 -97.8242 89° East 474 545 39,000  Level Minneapolis Center
Mon 10:35:51 PM 40.1914 -97.6522 89° East 475 547 39,000  Level Minneapolis Center
Mon 10:36:52 PM 40.1931 -97.4786 89° East 477 549 39,000  Level Minneapolis Center
Mon 10:37:53 PM 40.1953 -97.2986 89° East 476 548 39,000  Level Minneapolis Center
Mon 10:38:54 PM 40.1975 -97.1269 89° East 475 547 39,000  Level Minneapolis Center
Mon 10:39:55 PM 40.1975 -96.9550 90° East 474 545 39,000  Level Minneapolis Center
Mon 10:40:57 PM 40.1992 -96.7847 89° East 473 544 39,000  Level Minneapolis Center
Mon 10:41:58 PM 40.1992 -96.5803 90° East 470 541 39,000  Level Minneapolis Center
Mon 10:42:59 PM 40.1997 -96.4122 90° East 467 537 39,000  Level Minneapolis Center
Mon 10:44:00 PM 40.1997 -96.2436 90° East 465 535 39,000  Level Minneapolis Center
Mon 10:45:01 PM 40.1997 -96.0758 90° East 465 535 39,000  Level Minneapolis Center
Mon 10:46:02 PM 40.1981 -95.9078 91° East 465 535 39,000  Level Minneapolis Center
Mon 10:47:03 PM 40.1978 -95.7389 90° East 465 535 39,000  Level Minneapolis Center
Mon 10:48:04 PM 40.1972 -95.5717 90° East 465 535 39,000  Level Minneapolis Center
Mon 10:49:06 PM 40.1950 -95.4031 91° East 465 535 39,000  Level Minneapolis Center
Mon 10:50:07 PM 40.1947 -95.2306 90° East 470 541 39,000  Level Minneapolis Center
Mon 10:51:08 PM 40.1928 -95.0286 91° East 466 536 39,000  Level Minneapolis Center
Mon 10:52:09 PM 40.1900 -94.8606 91° East 466 536 39,000  Level Minneapolis Center
Mon 10:53:10 PM 40.1867 -94.6919 91° East 466 536 39,000  Level Minneapolis Center
Mon 10:55:13 PM 40.1806 -94.3647 91° East 465 535 39,000  Level Minneapolis Center
Mon 10:55:38 PM 40.1786 -94.2775 92° East 465 535 39,000  Level Kansas City Center
Mon 10:56:39 PM 40.1761 -94.1167 91° East 463 533 39,000  Level Kansas City Center
Mon 10:57:40 PM 40.1717 -93.9619 92° East 468 539 39,000  Level Kansas City Center
Mon 10:58:41 PM 40.1664 -93.7592 92° East 468 539 39,000  Level Kansas City Center
Mon 10:59:42 PM 40.1633 -93.5906 91° East 469 540 39,000  Level Kansas City Center
Mon 11:00:42 PM 40.1575 -93.4192 92° East 473 544 39,000  Level Kansas City Center
Mon 11:01:43 PM 40.1531 -93.2508 92° East 469 540 39,000  Level Kansas City Center
Mon 11:02:44 PM 40.1486 -93.0806 92° East 473 544 39,000  Level Kansas City Center
Mon 11:03:45 PM 40.1436 -92.9167 92° East 466 536 39,000  Level Kansas City Center
Mon 11:04:46 PM 40.1381 -92.7269 92° East 466 536 39,000  Level Kansas City Center
Mon 11:05:47 PM 40.1322 -92.5656 93° East 465 535 39,000  Level Kansas City Center
Mon 11:06:48 PM 40.1447 -92.4064 84° East 459 528 39,000  Level Kansas City Center
Mon 11:07:49 PM 40.1539 -92.2289 86° East 457 526 39,000  Level Kansas City Center
Mon 11:08:50 PM 40.1617 -92.0675 86° East 453 521 39,000  Level Kansas City Center
Mon 11:09:51 PM 40.1692 -91.9058 86° East 451 519 39,000  Level Kansas City Center
Mon 11:10:52 PM 40.1758 -91.7436 87° East 452 520 39,000  Level Kansas City Center
Mon 11:11:53 PM 40.1833 -91.5819 86° East 451 519 39,000  Level Kansas City Center
Mon 11:12:53 PM 40.1908 -91.4214 86° East 448 516 39,000  Level Kansas City Center
Mon 11:13:54 PM 40.1994 -91.2283 87° East 447 514 39,000  Level Kansas City Center
Mon 11:14:55 PM 40.2058 -91.0692 87° East 443 510 39,000  Level Kansas City Center
Mon 11:15:56 PM 40.2128 -90.9128 87° East 440 506 39,000  Level Kansas City Center
Mon 11:16:51 PM 40.2183 -90.7853 87° East 439 505 39,000  Level Chicago Center
Mon 11:17:52 PM 40.2239 -90.5956 88° East 438 504 39,000  Level Chicago Center
Mon 11:18:53 PM 40.2306 -90.4383 87° East 435 501 39,000  Level Chicago Center
Mon 11:19:54 PM 40.2353 -90.2808 88° East 436 502 39,000  Level Chicago Center
Mon 11:20:55 PM 40.2392 -90.1242 88° East 434 499 39,000  Level Chicago Center
Mon 11:21:56 PM 40.2444 -89.9675 87° East 435 501 39,000  Level Chicago Center
Mon 11:22:57 PM 40.2486 -89.8106 88° East 436 502 39,000  Level Chicago Center
Mon 11:23:58 PM 40.2528 -89.6522 88° East 439 505 39,000  Level Chicago Center
Mon 11:24:59 PM 40.2572 -89.4925 88° East 441 507 39,000  Level Chicago Center
Mon 11:26:00 PM 40.2611 -89.3325 88° East 442 509 39,000  Level Chicago Center
Mon 11:27:01 PM 40.2656 -89.1733 88° East 441 507 39,000  Level Chicago Center
Mon 11:28:02 PM 40.2708 -88.9814 88° East 442 509 39,000  Level Chicago Center
Mon 11:29:03 PM 40.2742 -88.8225 88° East 440 506 39,000  Level Chicago Center
Mon 11:30:04 PM 40.2772 -88.6631 89° East 439 505 39,000  Level Chicago Center
Mon 11:31:05 PM 40.2803 -88.5033 89° East 442 509 39,000  Level Chicago Center
Mon 11:32:06 PM 40.2828 -88.3497 89° East 440 506 39,000  Level Chicago Center
Mon 11:33:07 PM 40.2864 -88.1931 88° East 434 499 39,000  Level Chicago Center
Mon 11:34:07 PM 40.2886 -88.0353 89° East 438 504 39,000  Level Chicago Center
Mon 11:35:08 PM 40.2903 -87.8792 89° East 434 499 39,000  Level Chicago Center
Mon 11:36:09 PM 40.2933 -87.6914 89° East 435 501 39,000  Level Chicago Center
Mon 11:37:10 PM 40.2956 -87.5336 89° East 437 503 39,000  Level Chicago Center
Mon 11:38:11 PM 40.2922 -87.3914 92° East 433 498 39,000  Level Chicago Center
Mon 11:39:12 PM 40.2889 -87.2347 92° East 432 497 39,000  Level Chicago Center
Mon 11:40:13 PM 40.2847 -87.0789 92° East 429 494 39,000  Level Chicago Center
Mon 11:41:14 PM 40.2819 -86.9222 91° East 431 496 39,000  Level Chicago Center
Mon 11:42:14 PM 40.2781 -86.7667 92° East 430 495 39,000  Level Chicago Center
Mon 11:43:15 PM 40.2744 -86.6111 92° East 429 494 39,000  Level Chicago Center
Mon 11:44:16 PM 40.2711 -86.4556 92° East 428 493 39,000  Level Chicago Center
Mon 11:45:16 PM 40.2661 -86.2675 92° East 429 494 39,000  Level Chicago Center
Mon 11:46:17 PM 40.2608 -86.1100 92° East 433 498 39,000  Level Chicago Center
Mon 11:47:18 PM 40.2550 -85.9528 93° East 433 498 39,000  Level Chicago Center
Mon 11:48:19 PM 40.2522 -85.8011 91° East 421 484 39,000  Level Chicago Center
Mon 11:49:19 PM 40.2483 -85.6467 92° East 424 488 39,000  Level Chicago Center
Mon 11:50:20 PM 40.2439 -85.4908 92° East 426 490 39,000  Level Chicago Center
Mon 11:51:21 PM 40.2394 -85.3400 92° East 418 481 39,000  Level Chicago Center
Mon 11:52:22 PM 40.2364 -85.1872 91° East 418 481 39,000  Level Chicago Center
Mon 11:53:22 PM 40.2303 -85.0358 93° East 419 482 39,000  Level Chicago Center
Mon 11:54:23 PM 40.2247 -84.8853 93° East 416 479 39,000  Level Chicago Center
Mon 11:55:24 PM 40.2203 -84.7367 92° East 409 471 39,000  Level Chicago Center
Mon 11:56:24 PM 40.2150 -84.5883 93° East 409 471 39,000  Level Chicago Center
Mon 11:57:25 PM 40.2097 -84.4406 93° East 407 468 39,000  Level Chicago Center
Mon 11:58:26 PM 40.2033 -84.2753 93° East 411 473 39,000  Level Chicago Center
Mon 11:59:26 PM 40.1969 -84.1258 93° East 413 475 39,000  Level Chicago Center
Tue 12:00:27 AM 40.1903 -83.9775 93° East 412 474 39,000  Level Chicago Center
Tue 12:01:27 AM 40.1847 -83.8289 93° East 411 473 39,000  Level Chicago Center
Tue 12:02:28 AM 40.1778 -83.6797 93° East 412 474 39,000 -31 Level Chicago Center
Tue 12:04:00 AM 40.1623 -83.4761 96° East  Level FlightAware Approximate
Tue 12:04:42 AM 40.1625 -83.3350 96° East 418 481 38,900  Level Indianapolis Center
Tue 12:05:42 AM 40.1550 -83.1797 94° East 420 483 38,900 50 Level Indianapolis Center
Tue 12:06:43 AM 40.1492 -83.0500 93° East 422 486 39,000  Climbing Indianapolis Center
Tue 12:07:44 AM 40.1408 -82.8961 94° East 422 486 38,900  Descending Indianapolis Center
Tue 12:08:44 AM 40.1325 -82.7422 94° East 421 484 39,000 50 Climbing Indianapolis Center
Tue 12:09:45 AM 40.1253 -82.5906 94° East 416 479 39,000 -198 Level Indianapolis Center
Tue 12:10:45 AM 40.1164 -82.4381 94° East 417 480 38,600 -645 Descending Indianapolis Center
Tue 12:11:46 AM 40.1081 -82.2836 94° East 420 483 37,700 -787 Descending Indianapolis Center
Tue 12:12:47 AM 40.0997 -82.1319 94° East 415 478 37,000 -347 Descending Indianapolis Center
Tue 12:13:47 AM 40.0906 -81.9878 95° East 398 458 37,000 -50 Level Indianapolis Center
Tue 12:14:48 AM 40.0822 -81.8414 94° East 400 460 36,900  Descending Indianapolis Center
Tue 12:15:48 AM 40.0722 -81.6778 95° East 401 461 37,000 50 Climbing Indianapolis Center
Tue 12:16:49 AM 40.0628 -81.5336 95° East 398 458 37,000  Level Indianapolis Center
Tue 12:17:50 AM 40.0539 -81.3894 95° East 397 457 37,000  Level Indianapolis Center
Tue 12:18:50 AM 40.0447 -81.2453 95° East 396 456 37,000  Level Indianapolis Center
Tue 12:19:51 AM 40.0350 -81.1008 95° East 397 457 37,000  Level Indianapolis Center
Tue 12:20:51 AM 40.0075 -80.9628 105° East 393 452 37,000  Level Indianapolis Center
Tue 12:21:52 AM 39.9817 -80.8222 103° East 395 455 37,000  Level Indianapolis Center
Tue 12:22:52 AM 39.9556 -80.6817 104° East 399 459 37,000  Level Indianapolis Center
Tue 12:23:53 AM 39.9292 -80.5397 104° East 398 458 37,000  Level Indianapolis Center
Tue 12:24:53 AM 39.9033 -80.3989 103° East 399 459 37,000  Level Indianapolis Center
Tue 12:25:54 AM 39.8753 -80.2583 105° East 399 459 37,000  Level Indianapolis Center
Tue 12:26:49 AM 39.8589 -80.1489 101° East 396 456 37,000  Level Washington Center
Tue 12:27:50 AM 39.8308 -80.0067 104° East 396 456 37,000  Level Washington Center
Tue 12:28:48 AM 39.8025 -79.8672 105° East 396 456 37,000  Level Washington Center
Tue 12:29:49 AM 39.7742 -79.7278 105° East 401 461 37,000  Level Washington Center
Tue 12:30:48 AM 39.7458 -79.5722 103° East 401 461 37,000  Level Washington Center
Tue 12:31:48 AM 39.7172 -79.4331 105° East 401 461 37,000 -350 Level Washington Center
Tue 12:32:48 AM 39.6883 -79.2911 105° East 401 461 36,300 -800 Descending Washington Center
Tue 12:33:48 AM 39.6611 -79.1497 104° East 401 461 35,400 -950 Descending Washington Center
Tue 12:34:48 AM 39.6319 -79.0081 105° East 401 461 34,400 -950 Descending Washington Center
Tue 12:35:48 AM 39.6044 -78.8747 105° East 410 472 33,500 -800 Descending Washington Center
Tue 12:36:48 AM 39.5669 -78.7169 107° East 415 478 32,800 -2,250 Descending Washington Center
Tue 12:37:48 AM 39.5411 -78.5814 104° East 420 483 29,000 -3,300 Descending Washington Center
Tue 12:38:48 AM 39.5114 -78.4375 105° East 420 483 26,200 -2,700 Descending Washington Center
Tue 12:39:48 AM 39.4811 -78.2964 105° East 415 478 23,600 -2,650 Descending Washington Center
Tue 12:40:48 AM 39.4489 -78.1503 106° East 401 461 20,900 -2,550 Descending Washington Center
Tue 12:41:48 AM 39.4206 -78.0175 105° East 395 455 18,500 -2,550 Descending Washington Center
Tue 12:42:48 AM 39.3917 -77.8875 106° East 383 441 15,800 -1,785 Descending Washington Center
Tue 12:43:49 AM 39.3942 -77.7614 88° East 366 421 14,900 -1,400 Descending Washington Center
Tue 12:44:48 AM 39.3753 -77.6400 101° East 354 407 13,000 -2,036 Descending Washington Center
Tue 12:45:41 AM 39.3500 -77.5333 107° East 339 390 11,100 -1,593 Descending Potomac TRACON
Tue 12:46:41 AM 39.3167 -77.4333 113° Southeast 289 333 10,000 -1,400 Descending Potomac TRACON
Tue 12:47:41 AM 39.3000 -77.3333 102° East 270 311 8,300 -1,650 Descending Potomac TRACON
Tue 12:48:41 AM 39.2833 -77.2500 104° East 257 296 6,700 -1,632 Descending Potomac TRACON
Tue 12:49:35 AM 39.2500 -77.1667 117° Southeast 250 288 5,200 -1,421 Descending Potomac TRACON
Tue 12:50:35 AM 39.2333 -77.0833 104° East 238 274 4,000 -900 Descending Potomac TRACON
Tue 12:51:35 AM 39.2167 -77.0167 108° East 201 231 3,400 -800 Descending Potomac TRACON
Tue 12:52:35 AM 39.2000 -76.9500 108° East 193 222 2,400 -500 Descending Potomac TRACON
Tue 12:53:35 AM 39.1833 -76.8833 108° East 187 215 2,400 -100 Level Potomac TRACON
Tue 12:54:35 AM 39.1833 -76.8333 90° East 158 182 2,200 -400 Descending Potomac TRACON
Tue 12:55:35 AM 39.1833 -76.7833 90° East 124 143 1,600 -650 Descending Potomac TRACON
Tue 12:56:35 AM 39.1833 -76.7333 90° East 128 147 900 -700 Descending Potomac TRACON
Tue 12:58:00 AM 39.1667 -76.6667 142° Southeast  Level FlightAware Approximate
Tue 01:05:00 AM 39.1754 -76.6683 142° Southeast  Level Estimated

Login

Don't have an account? Register now (free) for customized features, flight alerts, and more!